Time;durP1;ratioP1;P1;durP2;ratioP2;P2;SDS_P1;SDS_P2;PMS_P1;PMS_P2;Temp;Humidity;BMP_temperature;BMP_pressure;BME280_temperature;BME280_humidity;BME280_pressure;Samples;Min_cycle;Max_cycle;Signal;HPM_P1;HPM_P2
2022/04/20 09:00:58;;;;;;;11.10;7.05;;;;;;;11.70;48.47;99335.22;5144804;27;20365;-70
2022/04/20 09:03:28;;;;;;;16.55;6.88;;;;;;;11.80;47.30;99337.66;5111693;28;20047;-71
2022/04/20 09:05:58;;;;;;;10.40;7.18;;;;;;;12.05;47.26;99330.53;5111556;28;20485;-71
2022/04/20 09:08:27;;;;;;;12.57;6.77;;;;;;;12.08;46.34;99327.94;5111447;28;20084;-71
2022/04/20 09:10:56;;;;;;;11.30;7.17;;;;;;;12.08;46.04;99328.81;5110261;28;20039;-71
2022/04/20 09:13:33;;;;;;;7.53;4.97;;;;;;;11.99;46.58;99323.81;5111122;28;20060;-71
2022/04/20 09:16:07;;;;;;;11.10;6.40;;;;;;;11.99;46.68;99328.91;5111191;28;20516;-71
2022/04/20 09:18:38;;;;;;;12.13;6.57;;;;;;;11.95;46.38;99329.81;5111026;28;20052;-71
2022/04/20 09:21:07;;;;;;;10.77;6.20;;;;;;;11.96;46.08;99334.06;5110995;28;20055;-71
2022/04/20 09:23:36;;;;;;;7.30;4.95;;;;;;;11.98;46.30;99337.44;5110952;28;20043;-71
2022/04/20 09:26:09;;;;;;;13.55;7.18;;;;;;;12.17;46.59;99326.97;5107421;28;20032;-71
2022/04/20 09:28:40;;;;;;;6.78;4.95;;;;;;;12.52;45.20;99322.25;5102028;28;20505;-72
2022/04/20 09:31:13;;;;;;;10.15;5.25;;;;;;;12.84;42.49;99327.72;5098925;28;20049;-72
2022/04/20 09:33:44;;;;;;;7.53;5.10;;;;;;;13.08;40.37;99322.22;5094270;28;20068;-72
2022/04/20 09:36:14;;;;;;;8.52;5.28;;;;;;;13.27;39.59;99315.91;5110744;28;20040;-71
2022/04/20 09:39:03;;;;;;;7.93;5.03;;;;;;;13.31;40.05;99315.00;5108127;28;20485;-70
2022/04/20 09:41:35;;;;;;;9.07;4.95;;;;;;;13.37;40.36;99329.41;5107938;28;20558;-70
2022/04/20 09:44:09;;;;;;;6.30;4.13;;;;;;;13.35;40.22;99320.91;5109283;28;20036;-70
2022/04/20 09:49:31;;;;;;;6.28;4.63;;;;;;;13.41;40.39;99310.56;5093589;28;20063;-70
2022/04/20 09:52:09;;;;;;;7.82;5.63;;;;;;;13.61;39.44;99315.31;5090023;28;20119;-71
2022/04/20 09:54:38;;;;;;;7.93;5.30;;;;;;;13.50;39.05;99305.25;5089161;28;20052;-70
2022/04/20 09:57:11;;;;;;;10.97;5.10;;;;;;;13.43;39.81;99309.66;5089986;28;20044;-69
2022/04/20 09:59:56;;;;;;;8.25;5.18;;;;;;;13.36;40.72;99313.19;5089553;28;20053;-70
2022/04/20 10:02:48;;;;;;;9.10;4.80;;;;;;;13.21;40.84;99313.47;5103081;28;20044;-70
2022/04/20 10:05:19;;;;;;;10.45;5.70;;;;;;;13.22;40.95;99304.91;5110458;28;20052;-70
2022/04/20 10:07:54;;;;;;;8.65;5.15;;;;;;;13.39;41.43;99313.13;5107040;28;20036;-70
2022/04/20 10:10:25;;;;;;;9.57;5.72;;;;;;;13.44;40.78;99313.91;5106890;28;20048;-69
2022/04/20 10:12:54;;;;;;;;;;;;;;;13.44;40.87;99306.22;5097018;28;20044;-69
2022/04/20 10:18:05;;;;;;;8.27;5.47;;;;;;;13.55;40.09;99302.63;5096660;28;20101;-69
2022/04/20 10:20:35;;;;;;;8.48;6.05;;;;;;;13.58;40.15;99307.69;5096629;28;20539;-69
2022/04/20 10:23:07;;;;;;;8.57;5.25;;;;;;;13.44;39.38;99311.34;5096308;28;20048;-69
2022/04/20 10:25:38;;;;;;;9.45;5.55;;;;;;;13.29;39.21;99301.34;5096491;28;20048;-69
2022/04/20 10:28:12;;;;;;;10.07;5.57;;;;;;;13.34;39.38;99294.44;5091095;28;20509;-70
2022/04/20 10:31:00;;;;;;;10.77;5.60;;;;;;;13.70;39.21;99286.94;5090354;28;20085;-70
2022/04/20 10:33:34;;;;;;;9.43;5.53;;;;;;;14.13;39.95;99280.06;5083484;28;20127;-70
2022/04/20 10:36:30;;;;;;;9.98;5.93;;;;;;;14.23;39.43;99289.22;5075690;28;20037;-69
2022/04/20 10:39:22;;;;;;;7.97;5.38;;;;;;;13.90;38.92;99289.94;5074800;28;20371;-70
2022/04/20 10:42:19;;;;;;;9.60;5.95;;;;;;;13.76;39.83;99287.66;5082323;28;20032;-70
2022/04/20 10:44:57;;;;;;;8.98;6.20;;;;;;;13.69;40.28;99283.53;5096238;28;20044;-70
2022/04/20 10:47:27;;;;;;;12.02;5.82;;;;;;;13.45;40.45;99276.31;5096254;28;20040;-70
2022/04/20 10:50:17;;;;;;;9.75;5.50;;;;;;;13.24;40.87;99289.50;5095851;28;20126;-69
2022/04/20 10:52:58;;;;;;;8.65;6.05;;;;;;;13.30;40.48;99277.44;5094768;28;20155;-69
2022/04/20 10:55:51;;;;;;;9.60;5.82;;;;;;;13.51;40.68;99275.34;5094512;28;20056;-70
2022/04/20 10:58:22;;;;;;;9.23;5.97;;;;;;;13.84;40.38;99279.81;5095935;28;20486;-70
2022/04/20 11:01:10;;;;;;;9.15;5.32;;;;;;;14.01;40.21;99273.44;5095326;28;20044;-70
2022/04/20 11:03:59;;;;;;;8.40;5.88;;;;;;;14.09;40.19;99271.56;5095984;28;20040;-69
2022/04/20 11:06:50;;;;;;;9.10;5.82;;;;;;;13.95;39.53;99272.72;5095451;28;20055;-69
2022/04/20 11:09:49;;;;;;;9.75;6.47;;;;;;;13.95;39.39;99278.72;5094100;28;20052;-69
2022/04/20 11:21:12;;;;;;;10.18;5.90;;;;;;;14.62;37.26;99267.81;5095207;28;20048;-70
2022/04/20 11:23:58;;;;;;;8.32;6.00;;;;;;;14.63;36.62;99268.66;5092873;28;20040;-70
2022/04/20 11:26:29;;;;;;;10.23;6.07;;;;;;;14.56;36.84;99267.13;5092069;28;20089;-71
2022/04/20 11:29:01;;;;;;;7.82;5.32;;;;;;;14.45;37.25;99249.38;5094154;28;20093;-69
2022/04/20 11:31:37;;;;;;;8.57;5.30;;;;;;;14.36;37.47;99259.03;5095245;28;20509;-70
2022/04/20 11:34:07;;;;;;;8.02;5.32;;;;;;;14.19;38.01;99238.84;5095323;28;20448;-71
2022/04/20 11:36:43;;;;;;;8.02;4.90;;;;;;;14.32;36.83;99258.28;5093928;28;20040;-70
2022/04/20 11:39:15;;;;;;;9.40;5.25;;;;;;;14.25;35.70;99251.56;5088387;28;20501;-69
2022/04/20 11:41:48;;;;;;;7.70;5.10;;;;;;;14.48;35.99;99249.31;5078361;28;20044;-70
2022/04/20 11:44:25;;;;;;;8.43;5.28;;;;;;;14.41;36.28;99242.66;5074848;28;20139;-70
2022/04/20 11:47:01;;;;;;;7.15;4.78;;;;;;;14.42;35.99;99243.50;5081563;28;20055;-70
2022/04/20 11:49:32;;;;;;;7.47;5.05;;;;;;;14.29;35.84;99232.63;5094633;28;20048;-70
2022/04/20 11:52:06;;;;;;;8.90;5.45;;;;;;;14.07;35.59;99190.34;5087922;28;20040;-70
2022/04/20 11:54:38;;;;;;;9.23;5.05;;;;;;;14.05;35.54;99220.34;5077423;28;20144;-69
2022/04/20 11:57:10;;;;;;;9.88;5.60;;;;;;;13.67;35.85;99212.63;5073484;28;20059;-68
2022/04/20 11:59:46;;;;;;;9.38;6.00;;;;;;;13.51;35.43;99240.28;5074043;28;20499;-69
2022/04/20 12:02:17;;;;;;;8.23;4.97;;;;;;;13.49;35.79;99243.75;5080204;28;20448;-72
2022/04/20 12:04:50;;;;;;;9.30;5.53;;;;;;;13.48;36.64;99240.34;5083859;28;20132;-71
2022/04/20 12:07:19;;;;;;;9.30;5.47;;;;;;;13.40;37.41;99237.94;5074695;28;20044;-71
2022/04/20 12:09:54;;;;;;;8.75;6.05;;;;;;;12.67;37.98;99124.84;5073952;28;20437;-70
2022/04/20 12:12:26;;;;;;;9.65;6.20;;;;;;;13.20;38.40;99240.03;5073839;28;20040;-72
2022/04/20 12:15:06;;;;;;;10.82;6.47;;;;;;;13.19;38.78;99243.47;5074054;28;20048;-69
2022/04/20 12:17:35;;;;;;;9.10;5.32;;;;;;;13.25;39.02;99237.38;5075114;28;20171;-70
2022/04/20 12:20:04;;;;;;;10.32;5.80;;;;;;;13.30;39.58;99241.53;5083778;28;20044;-70
2022/04/20 12:22:37;;;;;;;9.75;5.75;;;;;;;13.36;40.29;99236.28;5056186;28;20049;-70
2022/04/20 12:25:11;;;;;;;9.68;5.63;;;;;;;13.28;39.09;99238.16;5073720;28;20093;-69
2022/04/20 12:27:53;;;;;;;9.07;5.93;;;;;;;13.35;38.76;99233.75;5073132;28;20394;-70
2022/04/20 12:30:37;;;;;;;8.07;5.50;;;;;;;13.38;38.87;99239.69;5073678;28;20049;-70
2022/04/20 12:33:08;;;;;;;12.82;7.55;;;;;;;13.44;39.43;99234.44;5073826;28;20098;-70
2022/04/20 12:35:38;;;;;;;9.63;6.07;;;;;;;13.36;39.33;99236.28;5073427;28;20452;-70
2022/04/20 12:38:29;;;;;;;8.43;6.05;;;;;;;13.18;39.09;99241.78;5072782;28;20040;-71
2022/04/20 12:40:59;;;;;;;9.25;5.45;;;;;;;12.95;39.61;99241.31;5072122;28;20044;-71
2022/04/20 12:43:36;;;;;;;10.10;6.47;;;;;;;12.86;39.74;99238.88;5073581;28;20056;-71
2022/04/20 12:46:16;;;;;;;10.10;5.78;;;;;;;12.85;40.28;99250.03;5073005;28;20052;-71
2022/04/20 12:48:44;;;;;;;;;;;;;;;12.73;39.92;99242.53;5084606;28;20044;-71
2022/04/20 12:51:23;;;;;;;10.35;5.72;;;;;;;12.65;40.39;99244.38;5093682;28;19979;-71
2022/04/20 12:53:54;;;;;;;8.82;6.10;;;;;;;12.60;40.23;99246.16;5092246;28;20040;-71
2022/04/20 13:04:21;;;;;;;10.25;6.15;;;;;;;12.61;39.58;99232.50;5092464;28;20101;-69
2022/04/20 13:06:50;;;;;;;7.70;4.63;;;;;;;12.60;39.91;99235.91;5093445;28;20040;-70
2022/04/20 13:09:19;;;;;;;8.93;5.47;;;;;;;12.67;39.77;99227.25;5091377;28;20046;-70
2022/04/20 13:11:50;;;;;;;11.60;6.13;;;;;;;12.61;39.81;99201.78;5090372;28;20338;-70
2022/04/20 13:14:20;;;;;;;8.80;5.13;;;;;;;12.76;39.97;99227.13;5094057;28;20504;-70
2022/04/20 13:16:49;;;;;;;9.10;5.03;;;;;;;12.73;39.66;99233.16;5093529;28;20056;-70
2022/04/20 13:19:19;;;;;;;9.57;5.38;;;;;;;12.79;39.61;99232.19;5093702;28;20040;-70
2022/04/20 13:21:48;;;;;;;10.13;7.00;;;;;;;12.76;39.78;99222.00;5093420;28;20040;-70
2022/04/20 13:27:54;;;;;;;9.60;6.10;;;;;;;12.74;40.17;99228.88;5093585;28;20048;-69
2022/04/20 13:29:47;;;;;;;8.45;5.00;;;;;;;12.99;40.54;99219.88;5073665;28;20041;-70
2022/04/20 13:32:16;;;;;;;9.80;5.50;;;;;;;13.18;41.50;99217.84;5073342;28;20044;-69
2022/04/20 13:34:45;;;;;;;8.93;5.63;;;;;;;13.29;40.37;99219.34;5073015;28;20036;-69
2022/04/20 13:37:14;;;;;;;8.40;5.90;;;;;;;13.38;40.64;99214.06;5072979;28;20083;-69
2022/04/20 13:39:47;;;;;;;8.73;5.80;;;;;;;13.51;40.46;99224.06;5073122;28;20561;-70
2022/04/20 13:42:17;;;;;;;5.20;3.58;;;;;;;13.63;40.10;99218.69;5072021;28;20070;-69
2022/04/20 13:44:47;;;;;;;9.82;5.45;;;;;;;13.72;40.57;99224.47;5072962;28;20483;-69
2022/04/20 13:47:16;;;;;;;8.17;5.40;;;;;;;13.74;40.10;99221.88;5075026;28;20074;-70
2022/04/20 13:49:45;;;;;;;8.73;5.60;;;;;;;13.67;40.30;99218.59;5076931;28;20087;-69
2022/04/20 13:52:14;;;;;;;10.40;5.65;;;;;;;13.70;40.16;99218.53;5076976;28;20040;-69
2022/04/20 13:54:43;;;;;;;9.53;5.93;;;;;;;13.71;39.46;99224.50;5076568;28;20428;-69
2022/04/20 13:57:13;;;;;;;12.05;5.78;;;;;;;13.63;39.78;99216.13;5076515;28;20048;-69
2022/04/20 13:59:43;;;;;;;8.40;5.57;;;;;;;13.69;39.97;99228.81;5076534;28;20123;-69
2022/04/20 14:02:13;;;;;;;8.55;6.05;;;;;;;13.76;40.18;99233.78;5076365;28;20138;-69
2022/04/20 14:04:43;;;;;;;8.55;5.72;;;;;;;13.77;40.10;99234.66;5076534;28;20048;-69
2022/04/20 14:07:12;;;;;;;9.23;6.20;;;;;;;13.82;39.71;99233.66;5076673;28;20449;-69
2022/04/20 14:09:41;;;;;;;6.97;4.63;;;;;;;13.73;40.07;99209.91;5075446;28;20086;-69
2022/04/20 14:12:11;;;;;;;10.52;6.15;;;;;;;13.86;39.94;99232.72;5076305;28;20053;-70
2022/04/20 14:14:40;;;;;;;10.65;6.57;;;;;;;13.42;39.65;99169.53;5076240;28;20052;-70
2022/04/20 14:17:11;;;;;;;9.97;6.43;;;;;;;13.79;40.35;99235.44;5076512;28;20119;-69
2022/04/20 14:19:42;;;;;;;10.15;6.20;;;;;;;13.81;39.97;99228.56;5076376;28;20047;-70
2022/04/20 14:22:13;;;;;;;12.45;6.22;;;;;;;13.61;40.69;99194.78;5076138;28;20041;-70
2022/04/20 14:24:42;;;;;;;11.23;7.32;;;;;;;13.88;39.56;99235.25;5076644;28;20457;-69
2022/04/20 14:32:38;;;;;;;10.13;5.63;;;;;;;13.71;38.81;99232.19;5065122;28;20129;-70
2022/04/20 14:35:09;;;;;;;8.50;6.03;;;;;;;13.75;38.81;99234.66;5076290;28;20490;-70
2022/04/20 14:37:39;;;;;;;10.15;6.18;;;;;;;13.77;39.32;99229.50;5075874;28;20072;-70
2022/04/20 14:40:08;;;;;;;8.25;6.07;;;;;;;13.78;39.76;99238.88;5075777;28;20045;-69
2022/04/20 14:42:38;;;;;;;8.60;6.00;;;;;;;13.73;39.76;99240.69;5075625;28;20064;-70
2022/04/20 14:45:07;;;;;;;11.13;5.68;;;;;;;13.73;39.56;99238.13;5075818;28;20371;-70
2022/04/20 14:47:38;;;;;;;9.65;6.35;;;;;;;13.76;39.76;99230.38;5074750;28;20139;-70
2022/04/20 14:50:08;;;;;;;8.95;6.05;;;;;;;13.77;39.89;99232.06;5075671;28;20054;-69
2022/04/20 14:52:39;;;;;;;;;;;;;;;13.70;39.86;99240.78;5076040;28;20052;-69
2022/04/20 14:55:09;;;;;;;8.75;5.97;;;;;;;13.74;39.97;99232.13;5074378;28;19931;-69
2022/04/20 14:57:44;;;;;;;10.27;6.40;;;;;;;13.69;40.59;99239.06;5075421;28;20051;-69
2022/04/20 15:00:14;;;;;;;11.23;6.53;;;;;;;13.72;40.44;99242.44;5075141;28;20470;-70
2022/04/20 15:02:48;;;;;;;;;;;;;;;13.71;40.17;99232.19;5075664;28;20136;-70
2022/04/20 15:05:17;;;;;;;10.05;6.00;;;;;;;13.75;39.95;99231.28;5075408;28;19970;-70
2022/04/20 15:07:46;;;;;;;11.07;6.90;;;;;;;13.76;39.97;99240.63;5075473;28;20035;-70
2022/04/20 15:10:17;;;;;;;10.45;6.68;;;;;;;13.63;40.96;99223.84;5075294;28;20041;-70
2022/04/20 15:12:50;;;;;;;9.93;6.45;;;;;;;13.69;40.61;99239.06;5074280;28;20044;-70
2022/04/20 15:15:19;;;;;;;9.30;6.43;;;;;;;13.64;40.56;99246.00;5075092;28;20048;-70
2022/04/20 15:17:49;;;;;;;11.93;7.43;;;;;;;13.64;40.53;99246.88;5075062;28;20094;-70
2022/04/20 15:20:19;;;;;;;13.18;7.53;;;;;;;13.50;40.62;99233.47;5075467;28;20094;-71
2022/04/20 15:22:48;;;;;;;11.77;7.20;;;;;;;13.54;40.82;99242.78;5075254;28;20040;-70
2022/04/20 15:25:17;;;;;;;12.25;7.78;;;;;;;13.53;40.95;99237.69;5074929;28;20041;-70
2022/04/20 15:27:46;;;;;;;10.95;7.28;;;;;;;13.46;41.23;99244.66;5075260;28;20040;-70
2022/04/20 15:30:15;;;;;;;10.63;6.57;;;;;;;13.41;41.24;99243.91;5075147;28;20044;-70
2022/04/20 15:32:44;;;;;;;10.80;7.07;;;;;;;13.46;41.16;99239.53;5074753;28;20289;-70
2022/04/20 15:35:14;;;;;;;9.75;6.13;;;;;;;13.36;41.05;99236.28;5074759;28;20151;-70
2022/04/20 15:37:44;;;;;;;10.93;7.22;;;;;;;13.36;41.04;99236.28;5074745;28;20463;-70
2022/04/20 15:40:23;;;;;;;10.90;6.60;;;;;;;13.40;41.35;99242.22;5074711;28;20047;-70
2022/04/20 15:42:53;;;;;;;11.07;6.82;;;;;;;13.43;41.69;99231.91;5074760;28;20041;-70
2022/04/20 15:45:22;;;;;;;10.13;6.68;;;;;;;13.41;41.61;99228.53;5075036;28;20044;-70
2022/04/20 15:47:51;;;;;;;9.13;5.18;;;;;;;13.30;41.58;99231.28;5073396;28;20044;-70
2022/04/20 15:50:22;;;;;;;12.18;7.43;;;;;;;13.27;41.80;99231.34;5074379;28;20047;-70
2022/04/20 15:52:51;;;;;;;10.35;6.80;;;;;;;13.17;42.35;99229.81;5073331;28;20094;-70
2022/04/20 16:00:44;;;;;;;10.70;6.65;;;;;;;13.25;42.33;99233.09;5072927;28;20037;-70
2022/04/20 16:03:15;;;;;;;12.15;7.40;;;;;;;13.21;42.47;99230.63;5072989;28;20044;-70
2022/04/20 16:05:48;;;;;;;10.50;6.63;;;;;;;13.16;42.24;99233.28;5074191;28;20080;-70
2022/04/20 16:08:18;;;;;;;10.73;7.78;;;;;;;13.10;42.39;99228.25;5073716;28;20417;-70
2022/04/20 16:10:49;;;;;;;9.63;7.25;;;;;;;13.09;42.92;99229.13;5074274;28;20048;-70
2022/04/20 16:13:19;;;;;;;12.38;7.80;;;;;;;13.09;42.92;99229.13;5073993;28;20044;-70
2022/04/20 16:15:48;;;;;;;10.52;6.60;;;;;;;13.02;42.96;99227.53;5074263;28;20139;-70
2022/04/20 16:18:17;;;;;;;11.07;7.20;;;;;;;12.95;43.45;99231.06;5073916;28;20056;-70
2022/04/20 16:20:48;;;;;;;9.70;6.78;;;;;;;12.90;44.00;99229.44;5072685;28;20067;-70
2022/04/20 16:23:17;;;;;;;11.40;6.65;;;;;;;12.86;44.34;99233.75;5073854;28;20044;-70
2022/04/20 16:25:46;;;;;;;10.35;6.32;;;;;;;12.78;43.74;99225.38;5074086;28;20037;-70
2022/04/20 16:28:16;;;;;;;12.30;7.20;;;;;;;12.80;43.45;99228.75;5074166;28;20124;-70
2022/04/20 16:30:45;;;;;;;;;;;;;;;12.79;43.37;99227.91;5074154;28;20045;-70
2022/04/20 16:33:18;;;;;;;11.05;6.38;;;;;;;12.73;43.49;99227.19;5073718;28;19939;-70
2022/04/20 16:35:51;;;;;;;13.82;7.75;;;;;;;12.70;43.34;99229.78;5074652;28;20048;-70
2022/04/20 16:38:20;;;;;;;10.77;6.43;;;;;;;12.69;43.11;99230.66;5072706;28;20075;-70
2022/04/20 16:40:50;;;;;;;11.07;6.60;;;;;;;12.30;42.74;99190.34;5073940;28;20449;-70
2022/04/20 16:43:19;;;;;;;8.07;5.75;;;;;;;12.58;42.84;99232.53;5073584;28;20078;-70
2022/04/20 16:45:51;;;;;;;10.33;6.03;;;;;;;12.53;42.53;99224.94;5073499;28;20067;-70
2022/04/20 16:48:21;;;;;;;9.38;6.25;;;;;;;12.51;42.65;99225.81;5073700;28;20094;-70
2022/04/20 16:50:52;;;;;;;8.88;5.93;;;;;;;12.45;42.43;99229.31;5073448;28;20471;-70
2022/04/20 16:53:21;;;;;;;9.68;6.28;;;;;;;12.38;42.52;99229.47;5072377;28;20041;-70
2022/04/20 16:55:50;;;;;;;10.32;6.13;;;;;;;12.26;42.89;99224.53;5073543;28;20071;-70
2022/04/20 16:58:19;;;;;;;10.63;5.90;;;;;;;12.22;43.13;99225.41;5073581;28;20037;-70
2022/04/20 17:00:48;;;;;;;9.83;6.33;;;;;;;12.21;43.23;99224.59;5073298;28;20084;-70
2022/04/20 17:03:17;;;;;;;9.02;5.68;;;;;;;12.24;43.32;99232.22;5073613;28;20759;-71
2022/04/20 17:05:49;;;;;;;9.83;5.03;;;;;;;12.19;43.72;99228.03;5073688;28;20383;-71
2022/04/20 17:08:19;;;;;;;10.15;6.55;;;;;;;12.14;43.90;99234.94;5073430;28;20277;-70
2022/04/20 17:10:49;;;;;;;9.57;5.78;;;;;;;12.07;43.99;99224.78;5073452;28;20098;-70
2022/04/20 17:13:18;;;;;;;8.07;6.03;;;;;;;12.02;43.91;99231.66;5073357;28;20051;-70
2022/04/20 17:15:47;;;;;;;9.10;5.85;;;;;;;12.00;44.20;99228.28;5073662;28;20505;-70
2022/04/20 17:18:16;;;;;;;10.27;5.95;;;;;;;11.93;44.62;99226.69;5072091;28;20040;-70
2022/04/20 17:28:43;;;;;;;9.15;5.75;;;;;;;11.51;46.26;99231.47;5077611;28;20068;-70
2022/04/20 17:31:13;;;;;;;8.48;5.68;;;;;;;11.40;46.60;99231.56;5077390;28;20485;-70
2022/04/20 17:33:42;;;;;;;9.38;5.82;;;;;;;11.40;46.53;99239.25;5076116;28;20398;-71
2022/04/20 17:38:52;;;;;;;;;;;;;;;11.16;47.64;99240.34;5077353;28;20048;-70
2022/04/20 17:41:22;;;;;;;9.50;5.75;;;;;;;11.09;47.74;99245.53;5077021;28;19920;-70
2022/04/20 17:43:51;;;;;;;10.55;6.07;;;;;;;10.81;47.34;99221.13;5076967;28;20033;-72
2022/04/20 17:46:20;;;;;;;12.77;6.80;;;;;;;10.11;47.83;99124.75;5077391;28;20033;-71
2022/04/20 17:48:49;;;;;;;9.38;6.32;;;;;;;10.77;47.12;99251.78;5076733;28;20110;-70
2022/04/20 17:51:18;;;;;;;10.35;6.72;;;;;;;10.76;47.59;99256.91;5076796;28;20116;-70
2022/04/20 17:53:47;;;;;;;9.30;6.53;;;;;;;10.68;47.88;99246.75;5077281;28;20045;-70
2022/04/20 17:56:18;;;;;;;9.02;6.25;;;;;;;10.34;48.38;99198.56;5076852;28;20123;-72
2022/04/20 17:58:47;;;;;;;10.32;5.78;;;;;;;10.65;48.55;99259.53;5077077;28;20043;-72
2022/04/20 18:01:16;;;;;;;10.30;6.90;;;;;;;10.63;48.54;99258.69;5076852;28;20390;-70
2022/04/20 18:03:47;;;;;;;8.73;6.10;;;;;;;10.61;47.70;99260.44;5077073;28;20082;-72
2022/04/20 18:06:16;;;;;;;9.50;6.45;;;;;;;10.53;48.73;99258.81;5076436;28;20048;-72
2022/04/20 18:08:46;;;;;;;10.02;6.07;;;;;;;10.54;49.78;99263.88;5076388;28;20052;-72
2022/04/20 18:11:17;;;;;;;13.45;6.47;;;;;;;10.53;50.00;99257.06;5076645;28;20049;-71
2022/04/20 18:13:46;;;;;;;10.73;6.45;;;;;;;10.48;50.15;99258.84;5076536;28;20082;-72
2022/04/20 18:16:16;;;;;;;9.43;6.22;;;;;;;10.40;50.47;99254.63;5076279;28;20098;-70
2022/04/20 18:18:45;;;;;;;11.20;5.97;;;;;;;10.30;50.06;99258.94;5076130;28;20045;-70
2022/04/20 18:21:14;;;;;;;10.70;6.33;;;;;;;10.21;50.66;99259.00;5076547;28;20393;-70
2022/04/20 18:23:44;;;;;;;12.50;6.95;;;;;;;10.15;50.88;99253.94;5075101;28;20041;-70
2022/04/20 18:26:13;;;;;;;10.03;5.23;;;;;;;10.03;51.29;99259.06;5075125;28;20051;-70
2022/04/20 18:28:44;;;;;;;13.45;6.60;;;;;;;9.95;50.70;99263.38;5075140;28;20064;-70
2022/04/20 18:31:13;;;;;;;10.88;6.72;;;;;;;9.73;51.40;99247.34;5075817;28;20538;-70
2022/04/20 18:33:43;;;;;;;10.77;6.97;;;;;;;9.76;52.16;99264.31;5074296;28;20058;-70
2022/04/20 18:36:15;;;;;;;7.88;4.90;;;;;;;9.68;52.29;99272.00;5076216;28;20457;-70
2022/04/20 18:38:44;;;;;;;10.75;6.30;;;;;;;9.64;53.12;99272.00;5076528;28;20110;-70
2022/04/20 18:41:14;;;;;;;10.90;6.80;;;;;;;9.60;52.95;99271.16;5076139;28;20082;-70
2022/04/20 18:43:45;;;;;;;11.68;7.05;;;;;;;9.54;52.65;99272.88;5076025;28;20600;-70
2022/04/20 18:46:14;;;;;;;13.77;8.07;;;;;;;9.53;53.04;99276.28;5076156;28;20490;-70
2022/04/20 18:48:44;;;;;;;14.32;8.55;;;;;;;9.43;53.19;99271.22;5074623;28;20555;-70
2022/04/20 18:51:15;;;;;;;12.82;7.43;;;;;;;9.47;53.08;99266.13;5075841;28;20059;-70
2022/04/20 18:59:04;;;;;;;14.02;8.60;;;;;;;9.39;53.18;99284.81;5075478;28;20510;-70
2022/04/20 19:01:37;;;;;;;14.55;8.45;;;;;;;9.30;52.97;99276.34;5075502;28;20391;-70
2022/04/20 19:04:46;;;;;;;14.80;9.15;;;;;;;9.23;53.70;99283.16;5074225;28;20044;-70
2022/04/20 19:06:55;;;;;;;;;;;;;;;9.16;53.47;99276.41;5075783;28;20060;-70
2022/04/20 19:09:24;;;;;;;12.68;7.75;;;;;;;9.10;53.98;99270.44;5075360;28;19921;-70
2022/04/20 19:11:53;;;;;;;19.00;8.00;;;;;;;8.68;53.13;99235.72;5074318;28;20041;-70
2022/04/20 19:14:24;;;;;;;13.43;7.57;;;;;;;8.89;53.47;99275.56;5075441;28;20036;-70
2022/04/20 19:16:55;;;;;;;14.93;8.57;;;;;;;8.68;54.16;99251.00;5075177;28;20098;-70
2022/04/20 19:19:24;;;;;;;16.45;8.32;;;;;;;8.60;54.18;99247.59;5075313;28;20127;-70
2022/04/20 19:21:54;;;;;;;15.17;8.70;;;;;;;8.56;53.96;99263.69;5075099;28;20036;-70
2022/04/20 19:24:23;;;;;;;;;;;;;;;8.56;54.85;99276.41;5075458;28;20343;-70
2022/04/20 19:26:52;;;;;;;9.93;5.87;;;;;;;8.52;54.43;99270.47;5074540;28;19961;-70
2022/04/20 19:29:21;;;;;;;13.73;8.57;;;;;;;8.41;55.03;99256.06;5074259;28;20135;-70
2022/04/20 19:31:52;;;;;;;16.83;9.52;;;;;;;8.44;55.25;99266.22;5074845;28;20040;-70
2022/04/20 19:34:21;;;;;;;18.27;9.73;;;;;;;8.51;55.09;99267.94;5075118;28;20390;-70
2022/04/20 19:36:51;;;;;;;16.70;9.60;;;;;;;8.43;54.72;99267.06;5074800;28;20072;-70
2022/04/20 19:39:21;;;;;;;14.82;8.80;;;;;;;8.23;54.79;99261.09;5074996;28;20037;-70
2022/04/20 19:41:51;;;;;;;14.57;8.52;;;;;;;7.96;55.41;99236.47;5074702;28;20505;-72
2022/04/20 19:44:21;;;;;;;17.30;10.35;;;;;;;8.00;55.60;99266.97;5073637;28;20049;-70
2022/04/20 19:46:51;;;;;;;16.58;9.65;;;;;;;7.84;55.91;99270.31;5074916;28;20048;-70
2022/04/20 19:49:25;;;;;;;16.75;10.57;;;;;;;7.78;56.68;99266.88;5074954;28;20543;-70
2022/04/20 19:51:54;;;;;;;20.02;10.68;;;;;;;7.64;56.72;99266.84;5074394;28;20069;-70
2022/04/20 19:54:23;;;;;;;17.52;10.63;;;;;;;7.48;56.53;99259.16;5074333;28;20044;-70
2022/04/20 19:56:54;;;;;;;19.85;10.88;;;;;;;7.21;56.83;99240.41;5073179;28;20090;-70
2022/04/20 19:59:24;;;;;;;18.77;11.30;;;;;;;7.30;57.55;99257.34;5074128;28;20048;-70
2022/04/20 20:01:54;;;;;;;22.15;12.85;;;;;;;7.23;57.59;99261.56;5074549;28;20406;-70
2022/04/20 20:04:23;;;;;;;26.25;12.95;;;;;;;7.17;58.09;99260.69;5074430;28;20368;-70
2022/04/20 20:06:52;;;;;;;24.98;13.93;;;;;;;7.12;57.94;99268.25;5074286;28;20426;-70
2022/04/20 20:09:22;;;;;;;21.58;12.00;;;;;;;7.05;58.31;99265.66;5073260;28;20518;-70
2022/04/20 20:11:53;;;;;;;22.42;12.68;;;;;;;7.03;58.70;99262.28;5074409;28;20046;-70
2022/04/20 20:14:23;;;;;;;21.13;12.40;;;;;;;6.84;58.75;99247.78;5074089;28;20146;-70
2022/04/20 20:16:54;;;;;;;20.30;11.90;;;;;;;6.89;59.34;99257.09;5073946;28;20110;-70
2022/04/20 20:19:23;;;;;;;22.27;11.95;;;;;;;6.82;58.72;99257.03;5074032;28;20045;-70
2022/04/20 20:21:53;;;;;;;22.13;11.40;;;;;;;6.63;59.52;99241.69;5074722;28;20033;-70
2022/04/20 20:32:21;;;;;;;23.23;12.43;;;;;;;6.71;60.02;99265.44;5072858;28;20429;-70
2022/04/20 20:34:50;;;;;;;21.70;12.43;;;;;;;6.65;60.11;99265.38;5074216;28;20048;-70
2022/04/20 20:37:19;;;;;;;25.27;12.70;;;;;;;6.07;60.22;99182.06;5074283;28;20079;-70
2022/04/20 20:39:48;;;;;;;23.67;13.57;;;;;;;6.37;60.74;99248.25;5073707;28;20054;-70
2022/04/20 20:42:17;;;;;;;20.97;12.70;;;;;;;6.41;60.85;99264.31;5074019;28;20486;-70
2022/04/20 20:44:46;;;;;;;25.50;13.73;;;;;;;6.36;61.02;99265.97;5073876;28;20056;-70
2022/04/20 20:47:15;;;;;;;17.90;9.30;;;;;;;6.30;61.19;99265.91;5072440;28;20045;-70
2022/04/20 20:52:32;;;;;;;27.83;12.52;;;;;;;6.07;61.10;99222.59;5073632;28;20131;-70
2022/04/20 20:55:03;;;;;;;22.70;13.13;;;;;;;6.19;61.20;99255.66;5073578;28;20044;-70
2022/04/20 20:57:32;;;;;;;24.55;13.27;;;;;;;6.12;61.14;99253.06;5073574;28;20044;-70
2022/04/20 21:00:01;;;;;;;26.08;13.82;;;;;;;6.19;61.26;99263.25;5073433;28;20139;-70
2022/04/20 21:02:31;;;;;;;23.65;13.13;;;;;;;6.19;61.52;99263.25;5073667;28;20437;-70
2022/04/20 21:05:01;;;;;;;28.33;13.63;;;;;;;6.05;61.67;99259.72;5073280;28;20052;-70
2022/04/20 21:07:30;;;;;;;21.17;12.35;;;;;;;5.86;61.85;99263.75;5073424;28;20214;-70
2022/04/20 21:09:59;;;;;;;20.40;10.13;;;;;;;5.78;62.10;99257.72;5073657;28;20067;-70
2022/04/20 21:12:29;;;;;;;78.73;23.33;;;;;;;5.84;62.30;99264.53;5073404;28;20049;-70
2022/04/20 21:14:58;;;;;;;25.58;13.10;;;;;;;5.87;62.28;99264.63;5073615;28;20151;-70
2022/04/20 21:17:27;;;;;;;22.60;12.23;;;;;;;5.77;62.11;99255.19;5073434;28;20045;-70
2022/04/20 21:19:56;;;;;;;21.15;11.60;;;;;;;5.42;62.31;99214.28;5072465;28;20040;-70
2022/04/20 21:22:27;;;;;;;25.02;11.60;;;;;;;5.60;62.33;99266.78;5072495;28;20036;-70
2022/04/20 21:24:56;;;;;;;21.75;10.95;;;;;;;5.47;62.74;99272.53;5073488;28;20445;-69
2022/04/20 21:27:27;;;;;;;21.95;11.50;;;;;;;5.39;62.60;99270.75;5072051;28;20490;-70
2022/04/20 21:29:57;;;;;;;17.73;9.87;;;;;;;5.11;63.04;99248.44;5073160;28;20567;-70
2022/04/20 21:32:26;;;;;;;21.25;11.15;;;;;;;5.21;63.14;99265.44;5073170;28;20278;-70
2022/04/20 21:34:55;;;;;;;19.80;10.47;;;;;;;5.14;63.19;99271.25;5073979;28;20475;-70
2022/04/20 21:37:24;;;;;;;19.52;10.75;;;;;;;5.15;63.42;99274.63;5071848;28;20071;-70
2022/04/20 21:39:55;;;;;;;16.53;8.33;;;;;;;4.95;63.44;99261.69;5073447;28;20065;-70
2022/04/20 21:42:24;;;;;;;19.85;10.40;;;;;;;4.95;64.27;99279.38;5073072;28;20138;-70
2022/04/20 21:44:54;;;;;;;19.75;9.75;;;;;;;4.99;64.06;99281.13;5073628;28;20055;-70
2022/04/20 21:47:24;;;;;;;18.70;11.10;;;;;;;5.12;64.26;99284.69;5072979;28;20549;-70
2022/04/20 21:49:53;;;;;;;21.38;10.70;;;;;;;5.10;64.03;99288.88;5072982;28;20045;-70
2022/04/20 21:52:22;;;;;;;12.35;6.57;;;;;;;5.05;63.70;99273.66;5072881;28;20399;-70
2022/04/20 21:54:52;;;;;;;20.25;10.57;;;;;;;5.15;63.96;99278.00;5072866;28;20115;-70